PWSweather.com
Personal Weather Stations
Station Observations

YeovilGB

Lat: 50.949, Lon: -2.627

Elevation: 70

Station Type: Vantage Pro

http://www.yeovil-weather.me.uk/

High Low Average
Temperature 53.0°F11.7°C 44.1°F6.7°C 47.8°F8.8°C
Dew Point 48.6°F9.2°C 42.4°F5.8°C 45.4°F7.4°C
Winds 6.9 mph 11.1 kmh Calm Calm 1.0 mph SW1.6 kmh SW
Wind Gusts 12.7 mph20.4 kmh -- 3.0 mph4.8 kmh
Humidity 97% 81% 91%
Pressure 30.16 in1021.3 mb 29.92 in1013.2 mb -
Precipitation 0.06 in1.5 mm - -
Hour Temp Dew Point Humidity Winds Wind Gusts Pressure Precip Precip Rate Daily Precip Total
12:00 AM 48.6°F9.2°C 47.5°F8.6°C 96% 1.2 mph SW1.9 kmh SW 3.5 mph5.6 kmh 30.06 in1017.9 mb - 0.00 in0.0 mm 0.00 in0.0 mm
12:10 AM 48.6°F9.2°C 47.2°F8.4°C 95% 1.2 mph WSW1.9 kmh WSW 4.6 mph7.4 kmh 30.06 in1017.9 mb - 0.00 in0.0 mm 0.00 in0.0 mm
12:20 AM 48.5°F9.2°C 47.1°F8.4°C 95% Calm Calm 2.3 mph3.7 kmh 30.06 in1017.9 mb - 0.00 in0.0 mm 0.00 in0.0 mm
12:30 AM 48.3°F9.1°C 46.9°F8.3°C 95% Calm Calm -- 30.07 in1018.3 mb - 0.00 in0.0 mm 0.00 in0.0 mm
12:40 AM 48.1°F8.9°C 46.7°F8.2°C 95% 1.2 mph SW1.9 kmh SW 3.5 mph5.6 kmh 30.07 in1018.3 mb - 0.00 in0.0 mm 0.00 in0.0 mm
12:50 AM 47.8°F8.8°C 46.4°F8.0°C 95% Calm Calm -- 30.07 in1018.3 mb - 0.00 in0.0 mm 0.00 in0.0 mm
01:00 AM 47.5°F8.6°C 46.1°F7.8°C 95% Calm Calm -- 30.07 in1018.3 mb - 0.00 in0.0 mm 0.00 in0.0 mm
01:10 AM 47.1°F8.4°C 45.8°F7.7°C 95% 1.2 mph SW1.9 kmh SW -- 30.07 in1018.3 mb - 0.00 in0.0 mm 0.00 in0.0 mm
01:20 AM 46.9°F8.3°C 45.5°F7.5°C 95% 1.2 mph WSW1.9 kmh WSW 5.8 mph9.3 kmh 30.08 in1018.6 mb - 0.00 in0.0 mm 0.00 in0.0 mm
01:30 AM 46.7°F8.2°C 45.4°F7.4°C 95% Calm Calm -- 30.08 in1018.6 mb - 0.00 in0.0 mm 0.00 in0.0 mm
01:40 AM 46.7°F8.2°C 45.3°F7.4°C 95% Calm Calm 2.3 mph3.7 kmh 30.08 in1018.6 mb - 0.00 in0.0 mm 0.00 in0.0 mm
01:50 AM 46.7°F8.2°C 45.3°F7.4°C 95% 1.2 mph SW1.9 kmh SW 2.3 mph3.7 kmh 30.08 in1018.6 mb - 0.00 in0.0 mm 0.00 in0.0 mm
02:00 AM 46.6°F8.1°C 45.2°F7.3°C 95% Calm Calm -- 30.09 in1019.0 mb - 0.00 in0.0 mm 0.00 in0.0 mm
02:10 AM 46.7°F8.2°C 45.3°F7.4°C 95% 1.2 mph NW1.9 kmh NW -- 30.09 in1019.0 mb - 0.00 in0.0 mm 0.00 in0.0 mm
02:20 AM 46.9°F8.3°C 45.5°F7.5°C 95% 3.5 mph WSW5.6 kmh WSW 8.1 mph13.0 kmh 30.08 in1018.6 mb - 0.00 in0.0 mm 0.00 in0.0 mm
02:30 AM 46.9°F8.3°C 45.5°F7.5°C 95% 1.2 mph NNW1.9 kmh NNW 4.6 mph7.4 kmh 30.09 in1019.0 mb - 0.00 in0.0 mm 0.00 in0.0 mm
02:40 AM 47.1°F8.4°C 45.7°F7.6°C 95% 2.3 mph NW3.7 kmh NW 5.8 mph9.3 kmh 30.09 in1019.0 mb - 0.00 in0.0 mm 0.00 in0.0 mm
02:50 AM 47.1°F8.4°C 45.7°F7.6°C 95% Calm Calm 3.5 mph5.6 kmh 30.09 in1019.0 mb - 0.00 in0.0 mm 0.00 in0.0 mm
03:00 AM 47.0°F8.3°C 45.6°F7.6°C 95% 1.2 mph NW1.9 kmh NW 3.5 mph5.6 kmh 30.08 in1018.6 mb - 0.00 in0.0 mm 0.00 in0.0 mm
03:10 AM 46.9°F8.3°C 45.5°F7.5°C 95% 1.2 mph NW1.9 kmh NW 2.3 mph3.7 kmh 30.09 in1019.0 mb - 0.00 in0.0 mm 0.00 in0.0 mm
03:20 AM 46.8°F8.2°C 45.4°F7.4°C 95% Calm Calm 3.5 mph5.6 kmh 30.08 in1018.6 mb - 0.00 in0.0 mm 0.00 in0.0 mm
03:30 AM 46.8°F8.2°C 45.4°F7.4°C 95% Calm Calm 5.8 mph9.3 kmh 30.08 in1018.6 mb - 0.00 in0.0 mm 0.00 in0.0 mm
03:40 AM 46.6°F8.1°C 45.2°F7.3°C 95% 1.2 mph WSW1.9 kmh WSW 2.3 mph3.7 kmh 30.09 in1019.0 mb - 0.00 in0.0 mm 0.00 in0.0 mm
03:50 AM 46.5°F8.1°C 45.1°F7.3°C 95% Calm Calm -- 30.09 in1019.0 mb - 0.00 in0.0 mm 0.00 in0.0 mm
04:00 AM 46.5°F8.1°C 45.1°F7.3°C 95% Calm Calm -- 30.08 in1018.6 mb - 0.00 in0.0 mm 0.00 in0.0 mm
04:10 AM 46.4°F8.0°C 45.0°F7.2°C 95% Calm Calm -- 30.09 in1019.0 mb - 0.00 in0.0 mm 0.00 in0.0 mm
04:20 AM 46.3°F7.9°C 45.0°F7.2°C 95% Calm Calm -- 30.10 in1019.3 mb - 0.00 in0.0 mm 0.00 in0.0 mm
04:30 AM 46.2°F7.9°C 44.8°F7.1°C 95% Calm Calm 2.3 mph3.7 kmh 30.10 in1019.3 mb - 0.00 in0.0 mm 0.00 in0.0 mm
04:40 AM 46.1°F7.8°C 44.7°F7.1°C 95% Calm Calm -- 30.10 in1019.3 mb - 0.00 in0.0 mm 0.00 in0.0 mm
04:50 AM 46.1°F7.8°C 44.7°F7.1°C 95% Calm Calm 1.2 mph1.9 kmh 30.10 in1019.3 mb - 0.00 in0.0 mm 0.00 in0.0 mm
05:00 AM 46.0°F7.8°C 44.7°F7.1°C 95% 1.2 mph WSW1.9 kmh WSW 4.6 mph7.4 kmh 30.11 in1019.6 mb - 0.01 in0.3 mm 0.01 in0.3 mm
05:10 AM 46.2°F7.9°C 44.8°F7.1°C 95% Calm Calm -- 30.11 in1019.6 mb - 0.00 in0.0 mm 0.01 in0.3 mm
05:20 AM 46.1°F7.8°C 44.7°F7.1°C 95% Calm Calm -- 30.11 in1019.6 mb - 0.00 in0.0 mm 0.01 in0.3 mm
05:30 AM 46.0°F7.8°C 44.6°F7.0°C 95% Calm Calm -- 30.12 in1020.0 mb - 0.00 in0.0 mm 0.01 in0.3 mm
05:40 AM 45.9°F7.7°C 44.5°F6.9°C 95% Calm Calm -- 30.11 in1019.6 mb - 0.00 in0.0 mm 0.01 in0.3 mm
05:50 AM 45.9°F7.7°C 44.5°F6.9°C 95% Calm Calm -- 30.12 in1020.0 mb - 0.00 in0.0 mm 0.01 in0.3 mm
06:00 AM 45.7°F7.6°C 44.4°F6.9°C 95% Calm Calm -- 30.12 in1020.0 mb - 0.00 in0.0 mm 0.01 in0.3 mm
06:10 AM 45.7°F7.6°C 44.4°F6.9°C 95% Calm Calm -- 30.12 in1020.0 mb - 0.00 in0.0 mm 0.01 in0.3 mm
06:20 AM 45.6°F7.6°C 44.3°F6.8°C 95% Calm Calm -- 30.12 in1020.0 mb - 0.00 in0.0 mm 0.01 in0.3 mm
06:30 AM 45.5°F7.5°C 44.1°F6.7°C 95% Calm Calm -- 30.12 in1020.0 mb - 0.00 in0.0 mm 0.01 in0.3 mm
06:40 AM 45.4°F7.4°C 44.1°F6.7°C 95% Calm Calm -- 30.12 in1020.0 mb - 0.00 in0.0 mm 0.01 in0.3 mm
06:50 AM 45.2°F7.3°C 43.9°F6.6°C 95% Calm Calm -- 30.13 in1020.3 mb - 0.00 in0.0 mm 0.01 in0.3 mm
07:00 AM 44.9°F7.2°C 43.6°F6.4°C 95% Calm Calm -- 30.13 in1020.3 mb - 0.00 in0.0 mm 0.01 in0.3 mm
07:10 AM 44.7°F7.1°C 43.4°F6.3°C 95% Calm Calm -- 30.13 in1020.3 mb - 0.00 in0.0 mm 0.01 in0.3 mm
07:20 AM 44.7°F7.1°C 43.3°F6.3°C 95% Calm Calm -- 30.13 in1020.3 mb - 0.00 in0.0 mm 0.01 in0.3 mm
07:30 AM 44.4°F6.9°C 43.1°F6.2°C 95% Calm Calm -- 30.13 in1020.3 mb - 0.00 in0.0 mm 0.01 in0.3 mm
07:40 AM 44.2°F6.8°C 42.9°F6.1°C 95% Calm Calm -- 30.13 in1020.3 mb - 0.00 in0.0 mm 0.01 in0.3 mm
07:50 AM 44.1°F6.7°C 42.8°F6.0°C 95% Calm Calm -- 30.14 in1020.7 mb - 0.00 in0.0 mm 0.01 in0.3 mm
08:00 AM 44.1°F6.7°C 42.8°F6.0°C 95% Calm Calm -- 30.14 in1020.7 mb - 0.00 in0.0 mm 0.01 in0.3 mm
08:10 AM 44.2°F6.8°C 43.1°F6.2°C 96% Calm Calm -- 30.14 in1020.7 mb - 0.00 in0.0 mm 0.01 in0.3 mm
08:20 AM 44.6°F7.0°C 43.6°F6.4°C 96% Calm Calm -- 30.15 in1021.0 mb - 0.00 in0.0 mm 0.01 in0.3 mm
08:30 AM 45.1°F7.3°C 44.0°F6.7°C 96% Calm Calm -- 30.14 in1020.7 mb - 0.00 in0.0 mm 0.01 in0.3 mm
08:40 AM 45.5°F7.5°C 44.4°F6.9°C 96% Calm Calm -- 30.15 in1021.0 mb - 0.00 in0.0 mm 0.01 in0.3 mm
08:50 AM 46.4°F8.0°C 45.5°F7.5°C 97% Calm Calm -- 30.15 in1021.0 mb - 0.00 in0.0 mm 0.01 in0.3 mm
09:00 AM 47.0°F8.3°C 46.2°F7.9°C 97% Calm Calm -- 30.15 in1021.0 mb - 0.00 in0.0 mm 0.01 in0.3 mm
09:10 AM 47.4°F8.6°C 46.3°F7.9°C 96% Calm Calm -- 30.15 in1021.0 mb - 0.00 in0.0 mm 0.01 in0.3 mm
09:20 AM 47.6°F8.7°C 46.5°F8.1°C 96% Calm Calm -- 30.15 in1021.0 mb - 0.00 in0.0 mm 0.01 in0.3 mm
09:30 AM 47.7°F8.7°C 46.6°F8.1°C 96% Calm Calm -- 30.16 in1021.3 mb - 0.00 in0.0 mm 0.01 in0.3 mm
09:40 AM 47.8°F8.8°C 46.7°F8.2°C 96% Calm Calm -- 30.16 in1021.3 mb - 0.00 in0.0 mm 0.01 in0.3 mm
09:50 AM 48.0°F8.9°C 46.9°F8.3°C 96% 1.2 mph SW1.9 kmh SW 3.5 mph5.6 kmh 30.16 in1021.3 mb - 0.00 in0.0 mm 0.01 in0.3 mm
10:00 AM 48.2°F9.0°C 47.1°F8.4°C 96% 1.2 mph SSW1.9 kmh SSW 5.8 mph9.3 kmh 30.16 in1021.3 mb - 0.00 in0.0 mm 0.01 in0.3 mm
10:10 AM 48.3°F9.1°C 47.2°F8.4°C 96% Calm Calm 3.5 mph5.6 kmh 30.16 in1021.3 mb - 0.00 in0.0 mm 0.01 in0.3 mm
10:20 AM 48.4°F9.1°C 47.3°F8.5°C 96% Calm Calm -- 30.16 in1021.3 mb - 0.00 in0.0 mm 0.01 in0.3 mm
10:30 AM 48.5°F9.2°C 47.4°F8.6°C 96% Calm Calm 3.5 mph5.6 kmh 30.15 in1021.0 mb - 0.00 in0.0 mm 0.01 in0.3 mm
10:40 AM 48.5°F9.2°C 47.1°F8.4°C 95% Calm Calm -- 30.16 in1021.3 mb - 0.00 in0.0 mm 0.01 in0.3 mm
10:50 AM 48.6°F9.2°C 47.2°F8.4°C 95% 1.2 mph SW1.9 kmh SW 3.5 mph5.6 kmh 30.15 in1021.0 mb - 0.00 in0.0 mm 0.01 in0.3 mm
11:00 AM 48.7°F9.3°C 47.3°F8.5°C 95% 2.3 mph SW3.7 kmh SW 3.5 mph5.6 kmh 30.15 in1021.0 mb - 0.00 in0.0 mm 0.01 in0.3 mm
11:10 AM 48.7°F9.3°C 47.3°F8.5°C 95% Calm Calm -- 30.14 in1020.7 mb - 0.00 in0.0 mm 0.01 in0.3 mm
11:20 AM 49.0°F9.4°C 47.6°F8.7°C 95% 1.2 mph SW1.9 kmh SW 5.8 mph9.3 kmh 30.14 in1020.7 mb - 0.00 in0.0 mm 0.01 in0.3 mm
11:30 AM 49.1°F9.5°C 47.4°F8.6°C 94% 1.2 mph SW1.9 kmh SW 3.5 mph5.6 kmh 30.14 in1020.7 mb - 0.00 in0.0 mm 0.01 in0.3 mm
11:40 AM 49.2°F9.6°C 47.5°F8.6°C 94% Calm Calm -- 30.13 in1020.3 mb - 0.00 in0.0 mm 0.01 in0.3 mm
11:50 AM 49.5°F9.7°C 47.8°F8.8°C 94% Calm Calm 2.3 mph3.7 kmh 30.14 in1020.7 mb - 0.00 in0.0 mm 0.01 in0.3 mm
12:00 PM 49.7°F9.8°C 47.8°F8.8°C 93% Calm Calm -- 30.14 in1020.7 mb - 0.00 in0.0 mm 0.01 in0.3 mm
12:10 PM 49.9°F9.9°C 48.0°F8.9°C 93% Calm Calm 3.5 mph5.6 kmh 30.14 in1020.7 mb - 0.00 in0.0 mm 0.01 in0.3 mm
12:20 PM 49.8°F9.9°C 47.6°F8.7°C 92% 1.2 mph SW1.9 kmh SW 5.8 mph9.3 kmh 30.14 in1020.7 mb - 0.00 in0.0 mm 0.01 in0.3 mm
12:30 PM 50.0°F10.0°C 47.8°F8.8°C 92% Calm Calm -- 30.14 in1020.7 mb - 0.00 in0.0 mm 0.01 in0.3 mm
12:40 PM 50.0°F10.0°C 47.5°F8.6°C 91% 1.2 mph SW1.9 kmh SW 2.3 mph3.7 kmh 30.14 in1020.7 mb - 0.00 in0.0 mm 0.01 in0.3 mm
12:50 PM 50.0°F10.0°C 47.5°F8.6°C 91% 1.2 mph SSW1.9 kmh SSW 4.6 mph7.4 kmh 30.14 in1020.7 mb - 0.00 in0.0 mm 0.01 in0.3 mm
01:00 PM 50.0°F10.0°C 47.2°F8.4°C 90% 2.3 mph SSW3.7 kmh SSW 4.6 mph7.4 kmh 30.13 in1020.3 mb - 0.00 in0.0 mm 0.01 in0.3 mm
01:10 PM 50.1°F10.1°C 47.3°F8.5°C 90% Calm Calm 5.8 mph9.3 kmh 30.13 in1020.3 mb - 0.00 in0.0 mm 0.01 in0.3 mm
01:20 PM 50.2°F10.1°C 47.4°F8.6°C 90% 1.2 mph S1.9 kmh S 2.3 mph3.7 kmh 30.13 in1020.3 mb - 0.00 in0.0 mm 0.01 in0.3 mm
01:30 PM 50.4°F10.2°C 47.6°F8.7°C 90% Calm Calm -- 30.12 in1020.0 mb - 0.00 in0.0 mm 0.01 in0.3 mm
01:40 PM 50.6°F10.3°C 47.8°F8.8°C 90% 1.2 mph SE1.9 kmh SE 1.2 mph1.9 kmh 30.12 in1020.0 mb - 0.00 in0.0 mm 0.01 in0.3 mm
01:50 PM 50.8°F10.4°C 47.7°F8.7°C 89% 1.2 mph S1.9 kmh S 4.6 mph7.4 kmh 30.12 in1020.0 mb - 0.00 in0.0 mm 0.01 in0.3 mm
02:00 PM 51.0°F10.6°C 47.9°F8.8°C 89% 1.2 mph S1.9 kmh S 6.9 mph11.1 kmh 30.11 in1019.6 mb - 0.00 in0.0 mm 0.01 in0.3 mm
02:10 PM 51.3°F10.7°C 47.9°F8.8°C 88% 4.6 mph S7.4 kmh S 8.1 mph13.0 kmh 30.11 in1019.6 mb - 0.00 in0.0 mm 0.01 in0.3 mm
02:20 PM 51.5°F10.8°C 47.8°F8.8°C 87% 3.5 mph S5.6 kmh S 5.8 mph9.3 kmh 30.11 in1019.6 mb - 0.00 in0.0 mm 0.01 in0.3 mm
02:30 PM 52.0°F11.1°C 48.3°F9.1°C 87% 6.9 mph SSE11.1 kmh SSE 11.5 mph18.5 kmh 30.10 in1019.3 mb - 0.00 in0.0 mm 0.01 in0.3 mm
02:40 PM 52.6°F11.4°C 48.6°F9.2°C 86% 2.3 mph S3.7 kmh S 3.5 mph5.6 kmh 30.09 in1019.0 mb - 0.00 in0.0 mm 0.01 in0.3 mm
02:50 PM 53.0°F11.7°C 48.3°F9.1°C 84% 5.8 mph S9.3 kmh S 12.7 mph20.4 kmh 30.09 in1019.0 mb - 0.00 in0.0 mm 0.01 in0.3 mm
03:00 PM 52.5°F11.4°C 47.5°F8.6°C 83% 2.3 mph SSE3.7 kmh SSE 5.8 mph9.3 kmh 30.09 in1019.0 mb - 0.00 in0.0 mm 0.01 in0.3 mm
03:10 PM 52.4°F11.3°C 46.7°F8.2°C 81% 3.5 mph S5.6 kmh S 6.9 mph11.1 kmh 30.09 in1019.0 mb - 0.00 in0.0 mm 0.01 in0.3 mm
03:20 PM 52.9°F11.6°C 47.5°F8.6°C 82% 2.3 mph SSW3.7 kmh SSW 8.1 mph13.0 kmh 30.09 in1019.0 mb - 0.00 in0.0 mm 0.01 in0.3 mm
03:30 PM 52.9°F11.6°C 47.9°F8.8°C 83% 3.5 mph S5.6 kmh S 6.9 mph11.1 kmh 30.09 in1019.0 mb - 0.00 in0.0 mm 0.01 in0.3 mm
03:40 PM 52.3°F11.3°C 47.0°F8.3°C 82% 1.2 mph S1.9 kmh S 11.5 mph18.5 kmh 30.09 in1019.0 mb - 0.00 in0.0 mm 0.01 in0.3 mm
03:50 PM 51.7°F10.9°C 46.4°F8.0°C 82% 1.2 mph S1.9 kmh S 3.5 mph5.6 kmh 30.09 in1019.0 mb - 0.00 in0.0 mm 0.01 in0.3 mm
04:00 PM 51.3°F10.7°C 46.0°F7.8°C 82% 3.5 mph S5.6 kmh S 9.2 mph14.8 kmh 30.09 in1019.0 mb - 0.00 in0.0 mm 0.01 in0.3 mm
04:10 PM 51.0°F10.6°C 46.0°F7.8°C 83% 1.2 mph SSW1.9 kmh SSW 2.3 mph3.7 kmh 30.09 in1019.0 mb - 0.00 in0.0 mm 0.01 in0.3 mm
04:20 PM 50.7°F10.4°C 45.1°F7.3°C 81% 2.3 mph S3.7 kmh S 6.9 mph11.1 kmh 30.08 in1018.6 mb - 0.00 in0.0 mm 0.01 in0.3 mm
04:30 PM 50.5°F10.3°C 44.9°F7.2°C 81% 1.2 mph S1.9 kmh S 11.5 mph18.5 kmh 30.08 in1018.6 mb - 0.00 in0.0 mm 0.01 in0.3 mm
04:40 PM 50.3°F10.2°C 45.0°F7.2°C 82% 1.2 mph S1.9 kmh S 5.8 mph9.3 kmh 30.07 in1018.3 mb - 0.00 in0.0 mm 0.01 in0.3 mm
04:50 PM 50.1°F10.1°C 44.5°F6.9°C 81% 4.6 mph S7.4 kmh S 5.8 mph9.3 kmh 30.07 in1018.3 mb - 0.00 in0.0 mm 0.01 in0.3 mm
05:00 PM 49.8°F9.9°C 44.2°F6.8°C 81% 3.5 mph S5.6 kmh S 8.1 mph13.0 kmh 30.07 in1018.3 mb - 0.00 in0.0 mm 0.01 in0.3 mm
05:10 PM 49.6°F9.8°C 44.0°F6.7°C 81% 3.5 mph S5.6 kmh S 11.5 mph18.5 kmh 30.07 in1018.3 mb - 0.00 in0.0 mm 0.01 in0.3 mm
05:20 PM 49.4°F9.7°C 43.8°F6.6°C 81% Calm Calm 2.3 mph3.7 kmh 30.07 in1018.3 mb - 0.00 in0.0 mm 0.01 in0.3 mm
05:30 PM 49.3°F9.6°C 44.0°F6.7°C 82% 1.2 mph S1.9 kmh S 8.1 mph13.0 kmh 30.07 in1018.3 mb - 0.00 in0.0 mm 0.01 in0.3 mm
05:40 PM 49.1°F9.5°C 43.9°F6.6°C 82% 1.2 mph S1.9 kmh S 4.6 mph7.4 kmh 30.07 in1018.3 mb - 0.00 in0.0 mm 0.01 in0.3 mm
05:50 PM 49.0°F9.4°C 44.1°F6.7°C 83% 1.2 mph S1.9 kmh S 5.8 mph9.3 kmh 30.07 in1018.3 mb - 0.00 in0.0 mm 0.01 in0.3 mm
06:00 PM 48.7°F9.3°C 43.8°F6.6°C 83% 1.2 mph S1.9 kmh S 8.1 mph13.0 kmh 30.06 in1017.9 mb - 0.00 in0.0 mm 0.01 in0.3 mm
06:10 PM 48.4°F9.1°C 43.2°F6.2°C 82% 1.2 mph S1.9 kmh S 6.9 mph11.1 kmh 30.06 in1017.9 mb - 0.00 in0.0 mm 0.01 in0.3 mm
06:20 PM 48.1°F8.9°C 43.2°F6.2°C 83% Calm Calm 1.2 mph1.9 kmh 30.06 in1017.9 mb - 0.00 in0.0 mm 0.01 in0.3 mm
06:30 PM 47.6°F8.7°C 43.0°F6.1°C 84% Calm Calm -- 30.06 in1017.9 mb - 0.00 in0.0 mm 0.01 in0.3 mm
06:40 PM 47.2°F8.4°C 42.6°F5.9°C 84% 1.2 mph S1.9 kmh S 4.6 mph7.4 kmh 30.06 in1017.9 mb - 0.00 in0.0 mm 0.01 in0.3 mm
06:50 PM 47.0°F8.3°C 42.4°F5.8°C 84% Calm Calm -- 30.06 in1017.9 mb - 0.00 in0.0 mm 0.01 in0.3 mm
07:00 PM 47.0°F8.3°C 42.7°F5.9°C 85% 1.2 mph S1.9 kmh S 4.6 mph7.4 kmh 30.06 in1017.9 mb - 0.00 in0.0 mm 0.01 in0.3 mm
07:10 PM 47.1°F8.4°C 42.8°F6.0°C 85% Calm Calm 2.3 mph3.7 kmh 30.05 in1017.6 mb - 0.00 in0.0 mm 0.01 in0.3 mm
07:20 PM 47.2°F8.4°C 42.9°F6.1°C 85% Calm Calm -- 30.05 in1017.6 mb - 0.00 in0.0 mm 0.01 in0.3 mm
07:30 PM 47.3°F8.5°C 43.0°F6.1°C 85% Calm Calm 3.5 mph5.6 kmh 30.04 in1017.3 mb - 0.00 in0.0 mm 0.01 in0.3 mm
07:40 PM 47.5°F8.6°C 43.2°F6.2°C 85% Calm Calm 2.3 mph3.7 kmh 30.04 in1017.3 mb - 0.00 in0.0 mm 0.01 in0.3 mm
07:50 PM 47.4°F8.6°C 42.8°F6.0°C 84% Calm Calm 1.2 mph1.9 kmh 30.03 in1016.9 mb - 0.00 in0.0 mm 0.01 in0.3 mm
08:00 PM 47.4°F8.6°C 43.1°F6.2°C 85% 1.2 mph SSE1.9 kmh SSE 6.9 mph11.1 kmh 30.03 in1016.9 mb - 0.00 in0.0 mm 0.01 in0.3 mm
08:10 PM 47.3°F8.5°C 43.0°F6.1°C 85% 1.2 mph SSE1.9 kmh SSE 2.3 mph3.7 kmh 30.02 in1016.6 mb - 0.00 in0.0 mm 0.01 in0.3 mm
08:20 PM 47.3°F8.5°C 43.3°F6.3°C 86% 2.3 mph S3.7 kmh S 4.6 mph7.4 kmh 30.02 in1016.6 mb - 0.00 in0.0 mm 0.01 in0.3 mm
08:30 PM 47.4°F8.6°C 43.4°F6.3°C 86% 2.3 mph S3.7 kmh S 8.1 mph13.0 kmh 30.01 in1016.3 mb - 0.00 in0.0 mm 0.01 in0.3 mm
08:40 PM 47.6°F8.7°C 43.9°F6.6°C 87% 4.6 mph S7.4 kmh S 6.9 mph11.1 kmh 30.01 in1016.3 mb - 0.00 in0.0 mm 0.01 in0.3 mm
08:50 PM 47.4°F8.6°C 44.1°F6.7°C 88% 2.3 mph SSE3.7 kmh SSE 11.5 mph18.5 kmh 30.01 in1016.3 mb - 0.00 in0.0 mm 0.01 in0.3 mm
09:00 PM 47.2°F8.4°C 44.5°F6.9°C 90% 2.3 mph SSE3.7 kmh SSE 8.1 mph13.0 kmh 30.00 in1015.9 mb - 0.00 in0.0 mm 0.01 in0.3 mm
09:10 PM 47.0°F8.3°C 44.5°F6.9°C 91% Calm Calm 4.6 mph7.4 kmh 30.00 in1015.9 mb - 0.00 in0.0 mm 0.01 in0.3 mm
09:20 PM 46.9°F8.3°C 44.7°F7.1°C 92% 1.2 mph SE1.9 kmh SE 3.5 mph5.6 kmh 30.00 in1015.9 mb - 0.00 in0.0 mm 0.01 in0.3 mm
09:30 PM 46.8°F8.2°C 44.6°F7.0°C 92% Calm Calm -- 29.99 in1015.6 mb - 0.00 in0.0 mm 0.01 in0.3 mm
09:40 PM 46.7°F8.2°C 44.8°F7.1°C 93% 3.5 mph SE5.6 kmh SE 11.5 mph18.5 kmh 29.99 in1015.6 mb - 0.00 in0.0 mm 0.01 in0.3 mm
09:50 PM 46.6°F8.1°C 45.0°F7.2°C 94% 3.5 mph SE5.6 kmh SE 10.4 mph16.7 kmh 29.98 in1015.2 mb - 0.01 in0.3 mm 0.02 in0.5 mm
10:00 PM 46.5°F8.1°C 44.9°F7.2°C 94% 2.3 mph SSE3.7 kmh SSE 4.6 mph7.4 kmh 29.98 in1015.2 mb - 0.00 in0.0 mm 0.02 in0.5 mm
10:10 PM 46.5°F8.1°C 44.8°F7.1°C 94% 1.2 mph SSE1.9 kmh SSE 9.2 mph14.8 kmh 29.97 in1014.9 mb - 0.01 in0.3 mm 0.02 in0.5 mm
10:20 PM 46.4°F8.0°C 45.0°F7.2°C 95% Calm Calm 3.5 mph5.6 kmh 29.97 in1014.9 mb - 0.00 in0.0 mm 0.02 in0.5 mm
10:30 PM 46.3°F7.9°C 44.9°F7.2°C 95% 1.2 mph SSE1.9 kmh SSE 3.5 mph5.6 kmh 29.96 in1014.6 mb - 0.01 in0.3 mm 0.03 in0.8 mm
10:40 PM 46.4°F8.0°C 45.0°F7.2°C 95% Calm Calm -- 29.96 in1014.6 mb - 0.00 in0.0 mm 0.03 in0.8 mm
10:50 PM 46.4°F8.0°C 45.0°F7.2°C 95% Calm Calm -- 29.95 in1014.2 mb - 0.01 in0.3 mm 0.04 in1.0 mm
11:00 PM 46.4°F8.0°C 45.0°F7.2°C 95% Calm Calm -- 29.95 in1014.2 mb - 0.00 in0.0 mm 0.04 in1.0 mm
11:10 PM 46.5°F8.1°C 45.1°F7.3°C 95% 3.5 mph SSE5.6 kmh SSE 8.1 mph13.0 kmh 29.94 in1013.9 mb - 0.00 in0.0 mm 0.04 in1.0 mm
11:20 PM 46.6°F8.1°C 45.6°F7.6°C 96% 2.3 mph SSE3.7 kmh SSE 6.9 mph11.1 kmh 29.93 in1013.5 mb - 0.00 in0.0 mm 0.04 in1.0 mm
11:30 PM 46.7°F8.2°C 45.6°F7.6°C 96% 1.2 mph SE1.9 kmh SE -- 29.93 in1013.5 mb - 0.01 in0.3 mm 0.05 in1.3 mm
11:40 PM 46.8°F8.2°C 45.7°F7.6°C 96% 3.5 mph SE5.6 kmh SE 9.2 mph14.8 kmh 29.92 in1013.2 mb - 0.00 in0.0 mm 0.05 in1.3 mm
11:50 PM 46.9°F8.3°C 45.8°F7.7°C 96% 1.2 mph SE1.9 kmh SE -- 29.92 in1013.2 mb - 0.02 in0.5 mm 0.06 in1.5 mm